createdAt,value
2023-02-22T00:29:22.939Z,0
2023-02-22T00:30:04.036Z,0
2023-02-22T00:30:44.992Z,0
2023-02-22T00:32:07.051Z,0
2023-02-22T00:32:47.979Z,0
2023-02-22T00:33:28.959Z,0
2023-02-22T00:34:09.946Z,0
2023-02-22T00:34:50.934Z,0
2023-02-22T00:35:32.026Z,0
2023-02-22T00:38:57.133Z,0
2023-02-22T00:39:38.119Z,0
2023-02-22T00:40:19.100Z,0
2023-02-22T00:41:00.115Z,0
2023-02-22T00:41:41.141Z,0
2023-02-22T00:45:47.280Z,0
2023-02-22T00:46:28.279Z,0
2023-02-22T00:47:09.278Z,0
2023-02-22T00:47:50.397Z,0
2023-02-22T00:48:31.447Z,0
2023-02-22T00:52:37.515Z,0
2023-02-22T00:53:18.460Z,0
2023-02-22T00:53:59.438Z,0
2023-02-22T00:54:40.430Z,0
2023-02-22T00:55:21.403Z,0
2023-02-22T00:59:27.424Z,0
2023-02-22T01:00:08.403Z,0
2023-02-22T01:00:49.417Z,0
2023-02-22T01:01:30.575Z,0
2023-02-22T01:02:11.650Z,0
2023-02-22T01:06:47.334Z,0
2023-02-22T01:07:27.695Z,0
2023-02-22T01:08:08.166Z,0
2023-02-22T01:13:32.205Z,0
2023-02-22T01:14:12.736Z,0
2023-02-22T01:14:53.242Z,0
2023-02-22T01:15:33.769Z,0
2023-02-22T01:16:14.328Z,0
2023-02-22T01:16:54.808Z,0
2023-02-22T01:17:35.277Z,0
2023-02-22T01:18:15.755Z,0
2023-02-22T01:18:56.296Z,0
2023-02-22T01:19:36.801Z,0
2023-02-22T01:27:02.291Z,0
2023-02-22T01:27:42.774Z,0
2023-02-22T01:28:23.288Z,0
2023-02-22T01:29:03.762Z,0
2023-02-22T01:29:44.257Z,0
2023-02-22T01:30:24.815Z,0
2023-02-22T01:31:05.300Z,0
2023-02-22T01:31:45.930Z,0
2023-02-22T01:32:26.296Z,0
2023-02-22T01:33:06.737Z,0
2023-02-22T01:40:32.236Z,0
2023-02-22T01:41:12.764Z,0
2023-02-22T01:41:53.247Z,0
2023-02-22T01:42:33.776Z,0
2023-02-22T01:43:14.285Z,0
2023-02-22T01:43:54.779Z,0
2023-02-22T01:44:35.308Z,0
2023-02-22T01:45:15.766Z,0
2023-02-22T01:45:56.291Z,0
2023-02-22T01:46:36.786Z,0
2023-02-22T01:54:02.309Z,0
2023-02-22T01:55:32.620Z,0
2023-02-22T01:56:13.070Z,0
2023-02-22T01:56:53.567Z,0
2023-02-22T01:57:34.080Z,0
2023-02-22T01:58:14.549Z,0
2023-02-22T01:58:55.045Z,0
2023-02-22T01:59:35.577Z,0
2023-02-22T02:00:16.093Z,0
2023-02-22T02:07:41.818Z,0
2023-02-22T02:08:22.264Z,0
2023-02-22T02:09:02.814Z,0
2023-02-22T02:09:43.332Z,0
2023-02-22T02:10:23.836Z,0
2023-02-22T02:11:04.353Z,0
2023-02-22T02:11:44.854Z,0
2023-02-22T02:12:25.454Z,0
2023-02-22T02:13:05.998Z,0
2023-02-22T02:13:46.497Z,0
2023-02-22T02:21:12.311Z,0
2023-02-22T02:21:52.782Z,0
2023-02-22T02:25:32.511Z,0
2023-02-22T02:26:12.991Z,0
2023-02-22T02:26:53.467Z,0
2023-02-22T02:31:37.135Z,0
2023-02-22T02:32:17.607Z,0
2023-02-22T02:32:58.045Z,0
2023-02-22T02:33:38.553Z,0
2023-02-22T02:34:19.031Z,0
2023-02-22T02:34:59.499Z,0
2023-02-22T02:35:39.972Z,0
2023-02-22T02:36:20.514Z,0
2023-02-22T02:37:00.987Z,0
2023-02-22T02:37:41.455Z,0
2023-02-22T02:45:07.276Z,0
2023-02-22T02:45:47.726Z,0
2023-02-22T02:46:28.182Z,0
2023-02-22T02:47:08.710Z,0
2023-02-22T02:47:49.176Z,0
2023-02-22T02:48:29.715Z,0
2023-02-22T02:49:10.213Z,0
2023-02-22T02:49:50.712Z,0
2023-02-22T02:50:31.195Z,0
2023-02-22T02:51:11.686Z,0
2023-02-22T02:58:37.239Z,0
2023-02-22T02:59:17.711Z,0
2023-02-22T02:59:58.242Z,0
2023-02-22T03:00:38.724Z,0
2023-02-22T03:01:19.554Z,0
2023-02-22T03:01:59.795Z,0
2023-02-22T03:02:40.321Z,0
2023-02-22T03:03:20.895Z,0
2023-02-22T03:04:01.398Z,0
2023-02-22T03:04:41.909Z,0
2023-02-22T03:11:27.468Z,0
2023-02-22T03:12:08.007Z,0
2023-02-22T03:12:48.445Z,0
2023-02-22T03:13:28.905Z,0
2023-02-22T03:14:09.458Z,0
2023-02-22T03:14:49.938Z,0
2023-02-22T03:15:30.435Z,0
2023-02-22T03:16:11.722Z,0
2023-02-22T03:23:37.200Z,0
2023-02-22T03:24:17.656Z,0
2023-02-22T03:24:58.235Z,0
2023-02-22T03:25:38.747Z,0
2023-02-22T03:26:19.260Z,0
2023-02-22T03:26:59.755Z,0
2023-02-22T03:27:40.358Z,0
2023-02-22T03:28:20.748Z,0
2023-02-22T03:29:01.205Z,0
2023-02-22T03:29:41.695Z,0
2023-02-22T03:37:06.965Z,0
2023-02-22T03:37:47.465Z,0
2023-02-22T03:38:27.958Z,0
2023-02-22T03:39:08.440Z,0
2023-02-22T03:39:48.932Z,0
2023-02-22T03:40:29.451Z,0
2023-02-22T03:41:09.947Z,0
2023-02-22T03:41:50.424Z,0
2023-02-22T03:42:30.896Z,0
2023-02-22T03:43:11.359Z,0
2023-02-22T03:43:51.879Z,0
2023-02-22T03:51:17.467Z,0
2023-02-22T03:51:57.804Z,0
2023-02-22T03:52:38.269Z,0
2023-02-22T03:53:59.315Z,0
2023-02-22T03:54:39.779Z,0
2023-02-22T03:55:20.262Z,0
2023-02-22T03:56:00.764Z,0
2023-02-22T03:56:41.254Z,0
2023-02-22T03:57:21.718Z,0
2023-02-22T04:04:47.271Z,0
2023-02-22T04:05:27.613Z,0
2023-02-22T04:06:08.111Z,0
2023-02-22T04:06:48.640Z,0
2023-02-22T04:07:29.084Z,0
2023-02-22T04:08:09.597Z,0
2023-02-22T04:08:50.166Z,0
2023-02-22T04:09:30.551Z,0
2023-02-22T04:10:11.089Z,0
2023-02-22T04:11:32.002Z,0
2023-02-22T04:18:57.431Z,0
2023-02-22T04:19:37.905Z,0
2023-02-22T04:20:18.386Z,0
2023-02-22T04:20:58.903Z,0
2023-02-22T04:21:39.367Z,0
2023-02-22T04:22:19.892Z,0
2023-02-22T04:23:00.348Z,0
2023-02-22T04:23:40.790Z,0
2023-02-22T04:24:21.287Z,0
2023-02-22T04:25:01.751Z,0
2023-02-22T04:32:27.161Z,0
2023-02-22T04:33:07.647Z,0
2023-02-22T04:33:48.139Z,0
2023-02-22T04:34:28.614Z,0
2023-02-22T04:35:09.098Z,0
2023-02-22T04:35:49.640Z,0
2023-02-22T04:36:30.122Z,0
2023-02-22T04:37:10.589Z,0
2023-02-22T04:37:51.147Z,0
2023-02-22T04:38:31.559Z,0
2023-02-22T04:42:25.616Z,0
2023-02-22T04:43:06.147Z,0
2023-02-22T04:43:46.635Z,0
2023-02-22T04:49:10.430Z,0
2023-02-22T04:49:50.938Z,0
2023-02-22T04:50:31.386Z,0
2023-02-22T04:51:11.879Z,0
2023-02-22T04:51:52.397Z,0
2023-02-22T04:52:32.886Z,0
2023-02-22T04:53:13.398Z,0
2023-02-22T04:53:53.855Z,0
2023-02-22T04:54:34.358Z,0
2023-02-22T04:55:14.866Z,0
2023-02-22T04:55:55.396Z,0
2023-02-22T05:02:40.428Z,0
2023-02-22T05:03:20.857Z,0
2023-02-22T05:04:01.334Z,0
2023-02-22T05:04:41.932Z,0
2023-02-22T05:05:22.324Z,0
2023-02-22T05:06:02.825Z,0
2023-02-22T05:06:43.324Z,0
2023-02-22T05:07:23.874Z,0
2023-02-22T05:08:04.352Z,0
2023-02-22T05:08:44.814Z,0
2023-02-22T05:14:10.356Z,0
2023-02-22T05:14:50.880Z,0
2023-02-22T05:15:32.202Z,0
2023-02-22T05:16:12.083Z,0
2023-02-22T05:16:52.417Z,0
2023-02-22T05:17:32.920Z,0
2023-02-22T05:18:13.449Z,0
2023-02-22T05:18:53.963Z,0
2023-02-22T05:19:34.500Z,0
2023-02-22T05:20:15.013Z,0
2023-02-22T05:26:20.610Z,0
2023-02-22T05:27:01.087Z,0
2023-02-22T05:27:41.591Z,0
2023-02-22T05:28:22.049Z,0
2023-02-22T05:29:02.556Z,0
2023-02-22T05:29:43.006Z,0
2023-02-22T05:30:23.537Z,0
2023-02-22T05:31:04.100Z,0
2023-02-22T05:31:44.630Z,0
2023-02-22T05:32:25.075Z,0
2023-02-22T05:39:50.540Z,0
2023-02-22T05:40:31.034Z,0
2023-02-22T05:41:11.506Z,0
2023-02-22T05:41:51.991Z,0
2023-02-22T05:42:32.451Z,0
2023-02-22T05:43:12.966Z,0
2023-02-22T05:43:53.477Z,0
2023-02-22T05:44:33.972Z,0
2023-02-22T05:45:14.438Z,0
2023-02-22T05:45:54.935Z,0
2023-02-22T06:31:19.210Z,0
2023-02-22T06:31:59.356Z,0
2023-02-22T06:32:39.818Z,0
2023-02-22T06:37:23.503Z,0
2023-02-22T06:38:04.045Z,0
2023-02-22T06:38:44.497Z,0
2023-02-22T06:39:25.049Z,0
2023-02-22T06:40:05.993Z,0
2023-02-22T06:40:46.140Z,0
2023-02-22T06:41:27.204Z,0
2023-02-22T06:42:07.967Z,0
2023-02-22T06:42:48.467Z,0
2023-02-22T06:49:33.713Z,5
2023-02-22T06:50:14.253Z,5
2023-02-22T06:50:54.810Z,5
2023-02-22T06:51:35.285Z,5
2023-02-22T06:52:15.791Z,5
2023-02-22T06:52:56.362Z,5
2023-02-22T06:53:36.858Z,5
2023-02-22T06:54:17.348Z,5
2023-02-22T06:54:57.847Z,5
2023-02-22T06:55:38.358Z,5
2023-02-22T07:02:23.480Z,5
2023-02-22T07:03:04.064Z,5
2023-02-22T07:03:44.448Z,5
2023-02-22T07:04:24.903Z,5
2023-02-22T07:05:05.523Z,5
2023-02-22T07:05:46.007Z,5
2023-02-22T07:06:26.536Z,5
2023-02-22T07:07:07.096Z,5
2023-02-22T07:07:47.582Z,5
2023-02-22T07:08:28.152Z,5
2023-02-22T07:15:13.433Z,10
2023-02-22T07:15:53.976Z,10
2023-02-22T07:16:34.455Z,10
2023-02-22T07:17:14.977Z,15
2023-02-22T07:17:55.526Z,15
2023-02-22T07:18:36.084Z,15
2023-02-22T07:19:16.858Z,15
2023-02-22T07:19:57.253Z,15
2023-02-22T07:20:37.851Z,15
2023-02-22T07:21:18.555Z,15
2023-02-22T07:24:43.571Z,15
2023-02-22T07:25:24.102Z,15
2023-02-22T07:26:04.585Z,15
2023-02-22T07:26:45.144Z,20
2023-02-22T07:27:25.657Z,20
2023-02-22T07:28:06.215Z,20
2023-02-22T07:28:46.771Z,20
2023-02-22T07:29:27.336Z,20
2023-02-22T07:36:13.529Z,25
2023-02-22T07:36:53.995Z,25
2023-02-22T07:37:34.598Z,25
2023-02-22T07:38:15.097Z,25
2023-02-22T07:38:55.653Z,30
2023-02-22T07:39:36.121Z,30
2023-02-22T07:40:16.621Z,30
2023-02-22T07:40:57.203Z,30
2023-02-22T07:41:37.856Z,25
2023-02-22T07:42:18.382Z,25
2023-02-22T07:48:23.828Z,30
2023-02-22T07:49:04.325Z,30
2023-02-22T07:49:44.992Z,30
2023-02-22T07:50:25.747Z,30
2023-02-22T07:51:06.487Z,30
2023-02-22T07:51:47.007Z,30
2023-02-22T07:52:27.621Z,30
2023-02-22T07:53:08.048Z,30
2023-02-22T07:59:53.396Z,30
2023-02-22T08:00:33.974Z,30
2023-02-22T08:01:14.480Z,30
2023-02-22T08:01:54.995Z,30
2023-02-22T08:02:35.586Z,30
2023-02-22T08:03:16.030Z,30
2023-02-22T08:06:55.889Z,30
2023-02-22T08:07:36.502Z,30
2023-02-22T08:08:19.505Z,30
2023-02-22T08:11:00.228Z,35
2023-02-22T08:14:29.160Z,35
2023-02-22T08:15:09.924Z,35
2023-02-22T08:15:50.260Z,35
2023-02-22T08:20:34.072Z,35
2023-02-22T08:21:14.735Z,35
2023-02-22T08:21:55.068Z,35
2023-02-22T08:22:35.680Z,35
2023-02-22T08:23:16.202Z,35
2023-02-22T08:23:56.771Z,35
2023-02-22T08:24:37.283Z,35
2023-02-22T08:25:17.906Z,35
2023-02-22T08:25:58.392Z,35
2023-02-22T08:32:44.285Z,35
2023-02-22T08:36:23.502Z,35
2023-02-22T08:37:04.036Z,35
2023-02-22T08:37:44.627Z,35
2023-02-22T08:41:48.042Z,35
2023-02-22T08:42:28.534Z,35
2023-02-22T08:43:10.552Z,35
2023-02-22T08:43:51.485Z,35
2023-02-22T08:44:31.956Z,35
2023-02-22T08:45:12.597Z,35
2023-02-22T08:49:49.171Z,35
2023-02-22T08:50:29.239Z,35
2023-02-22T08:51:09.778Z,35
2023-02-22T08:55:27.969Z,35
2023-02-22T08:56:08.432Z,35
2023-02-22T08:56:48.961Z,35
2023-02-22T08:57:29.472Z,35
2023-02-22T08:58:10.016Z,35
2023-02-22T08:58:50.625Z,35
2023-02-22T08:59:31.088Z,35
2023-02-22T09:00:11.915Z,35
2023-02-22T09:00:52.563Z,35
2023-02-22T09:01:33.767Z,35
2023-02-22T09:05:38.644Z,35
2023-02-22T09:06:19.229Z,35
2023-02-22T09:06:59.926Z,35
2023-02-22T09:07:40.910Z,35
2023-02-22T09:12:28.171Z,35
2023-02-22T09:13:09.429Z,35
2023-02-22T09:13:50.744Z,35
2023-02-22T09:14:31.478Z,35
2023-02-22T09:15:12.125Z,35
2023-02-22T09:18:11.725Z,35
2023-02-22T09:18:53.382Z,35
2023-02-22T09:19:34.038Z,35
2023-02-22T09:20:16.007Z,35
2023-02-22T09:20:57.069Z,35
2023-02-22T09:21:38.734Z,35
2023-02-22T09:22:20.321Z,35
2023-02-22T09:24:27.419Z,35
2023-02-22T09:25:16.551Z,35
2023-02-22T09:25:50.011Z,35
2023-02-22T09:28:37.287Z,40
2023-02-22T09:29:18.440Z,40
2023-02-22T09:30:00.557Z,40
2023-02-22T09:30:41.669Z,40
2023-02-22T09:32:06.618Z,40
2023-02-22T09:35:42.893Z,35
2023-02-22T09:36:24.598Z,40
2023-02-22T09:37:05.408Z,40
2023-02-22T09:37:47.763Z,40
2023-02-22T09:38:30.053Z,40
2023-02-22T09:40:36.427Z,40
2023-02-22T09:41:19.156Z,40
2023-02-22T09:42:00.251Z,40
2023-02-22T09:44:06.103Z,40
2023-02-22T09:44:47.334Z,40
2023-02-22T09:45:29.291Z,35
2023-02-22T09:46:10.506Z,40
2023-02-22T09:48:21.940Z,40
2023-02-22T09:51:57.988Z,40
2023-02-22T09:52:38.417Z,40
2023-02-22T09:53:19.235Z,40
2023-02-22T09:56:02.471Z,40
2023-02-22T09:56:43.434Z,40
2023-02-22T09:57:23.988Z,40
2023-02-22T09:58:04.760Z,40
2023-02-22T09:58:45.482Z,40
2023-02-22T09:59:25.968Z,40
2023-02-22T10:00:06.790Z,40
2023-02-22T10:06:48.438Z,40
2023-02-22T10:07:30.782Z,40
2023-02-22T10:08:13.546Z,40
2023-02-22T10:08:55.393Z,40
2023-02-22T10:09:37.380Z,40
2023-02-22T10:14:00.951Z,40
2023-02-22T10:14:44.055Z,40
2023-02-22T10:18:19.379Z,40
2023-02-22T10:19:01.459Z,40
2023-02-22T10:19:41.915Z,40
2023-02-22T10:21:04.353Z,40
2023-02-22T10:21:45.180Z,40
2023-02-22T10:22:25.654Z,40
2023-02-22T10:23:06.231Z,40
2023-02-22T10:23:47.899Z,40
2023-02-22T10:29:54.882Z,40
2023-02-22T10:30:36.208Z,40
2023-02-22T10:31:21.190Z,40
2023-02-22T10:32:02.151Z,40
2023-02-22T10:32:43.423Z,40
2023-02-22T10:35:29.893Z,40
2023-02-22T10:36:13.174Z,40
2023-02-22T10:36:54.226Z,40
2023-02-22T10:40:20.460Z,40
2023-02-22T10:41:43.864Z,40
2023-02-22T10:42:32.459Z,40
2023-02-22T10:43:49.400Z,40
2023-02-22T10:44:32.252Z,40
2023-02-22T10:45:14.139Z,40
2023-02-22T10:50:58.238Z,40
2023-02-22T10:51:39.481Z,40
2023-02-22T10:52:20.128Z,40
2023-02-22T10:54:22.306Z,40
2023-02-22T10:55:14.420Z,40
2023-02-22T10:55:43.387Z,40
2023-02-22T10:56:23.938Z,40
2023-02-22T10:57:04.457Z,40
2023-02-22T10:57:46.445Z,40
2023-02-22T10:58:27.084Z,40
2023-02-22T11:01:53.391Z,40
2023-02-22T11:02:35.765Z,40
2023-02-22T11:03:16.328Z,35
2023-02-22T11:08:02.576Z,40
2023-02-22T11:08:43.039Z,40
2023-02-22T11:09:23.636Z,40
2023-02-22T11:10:04.288Z,40
2023-02-22T11:13:25.651Z,40
2023-02-22T11:16:06.720Z,40
2023-02-22T11:16:48.230Z,40
2023-02-22T11:17:29.229Z,40
2023-02-22T11:18:11.480Z,40
2023-02-22T11:21:27.017Z,40
2023-02-22T11:22:11.292Z,40
2023-02-22T11:22:51.654Z,40
2023-02-22T11:23:33.528Z,40
2023-02-22T11:24:14.168Z,40
2023-02-22T11:28:57.341Z,40
2023-02-22T11:29:38.725Z,40
2023-02-22T11:30:20.908Z,40
2023-02-22T11:31:02.018Z,40
2023-02-22T11:35:58.518Z,40
2023-02-22T11:36:39.021Z,40
2023-02-22T11:37:19.678Z,40
2023-02-22T11:40:02.885Z,35
2023-02-22T11:43:33.036Z,35
2023-02-22T11:44:13.716Z,35
2023-02-22T11:44:54.707Z,35
2023-02-22T11:45:35.107Z,35
2023-02-22T11:49:09.797Z,35
2023-02-22T11:49:51.912Z,35
2023-02-22T11:50:34.126Z,35
2023-02-22T12:32:36.508Z,30
2023-02-22T12:33:17.781Z,30
2023-02-22T12:33:58.884Z,30
2023-02-22T12:34:39.551Z,30
2023-02-22T12:35:21.028Z,30
2023-02-22T12:36:01.638Z,30
2023-02-22T12:36:43.087Z,30
2023-02-22T12:40:59.882Z,30
2023-02-22T12:41:40.573Z,30
2023-02-22T12:42:21.835Z,30
2023-02-22T12:43:02.527Z,30
2023-02-22T12:43:44.013Z,30
2023-02-22T12:44:24.593Z,30
2023-02-22T12:45:06.836Z,30
2023-02-22T12:45:45.724Z,30
2023-02-22T12:46:26.465Z,30
2023-02-22T12:52:32.805Z,30
2023-02-22T12:53:15.104Z,30
2023-02-22T12:53:55.666Z,30
2023-02-22T12:54:37.043Z,30
2023-02-22T12:55:17.665Z,30
2023-02-22T13:00:02.708Z,35
2023-02-22T13:00:43.176Z,35
2023-02-22T13:01:23.779Z,35
2023-02-22T13:02:04.416Z,35
2023-02-22T13:02:44.991Z,35
2023-02-22T13:03:26.153Z,35
2023-02-22T13:04:19.664Z,35
2023-02-22T13:04:47.258Z,35
2023-02-22T13:08:52.924Z,35
2023-02-22T13:09:33.456Z,35
2023-02-22T13:10:14.154Z,35
2023-02-22T13:10:54.951Z,35
2023-02-22T13:11:35.491Z,35
2023-02-22T13:12:16.720Z,35
2023-02-22T13:12:57.066Z,35
2023-02-22T13:13:37.593Z,35
2023-02-22T13:18:22.665Z,35
2023-02-22T13:19:03.274Z,35
2023-02-22T13:22:19.073Z,35
2023-02-22T13:22:59.614Z,35
2023-02-22T13:23:40.464Z,35
2023-02-22T13:28:24.218Z,35
2023-02-22T13:29:04.828Z,35
2023-02-22T13:29:45.453Z,35
2023-02-22T13:30:26.034Z,35
2023-02-22T13:31:06.768Z,35
2023-02-22T13:31:47.600Z,35
2023-02-22T13:32:28.253Z,35
2023-02-22T13:33:08.743Z,35
2023-02-22T13:33:49.276Z,35
2023-02-22T13:39:14.513Z,35
2023-02-22T13:42:49.277Z,35
2023-02-22T13:43:30.479Z,35
2023-02-22T13:44:10.680Z,35
2023-02-22T13:44:50.901Z,35
2023-02-22T13:49:52.401Z,35
2023-02-22T13:50:32.713Z,35
2023-02-22T13:51:13.228Z,35
2023-02-22T13:53:16.856Z,35
2023-02-22T13:53:57.160Z,35
2023-02-22T13:54:37.664Z,35
2023-02-22T13:55:18.302Z,30
2023-02-22T13:55:58.929Z,30
2023-02-22T13:56:39.469Z,30
2023-02-22T13:57:20.271Z,30
2023-02-22T13:58:00.735Z,30
2023-02-22T13:58:41.230Z,30
2023-02-22T13:59:21.834Z,30
2023-02-22T14:05:29.566Z,30
2023-02-22T14:06:08.118Z,30
2023-02-22T14:06:48.638Z,30
2023-02-22T14:07:29.455Z,30
2023-02-22T14:08:51.165Z,30
2023-02-22T14:11:12.405Z,30
2023-02-22T14:11:57.434Z,30
2023-02-22T14:12:40.576Z,30
2023-02-22T14:15:06.145Z,30
2023-02-22T14:15:45.676Z,30
2023-02-22T14:16:26.311Z,30
2023-02-22T14:18:30.656Z,30
2023-02-22T14:19:11.291Z,30
2023-02-22T14:19:52.637Z,30
2023-02-22T14:23:12.512Z,30
2023-02-22T14:23:53.002Z,30
2023-02-22T14:24:33.660Z,30
2023-02-22T14:27:16.866Z,25
2023-02-22T14:27:57.438Z,30
2023-02-22T14:28:38.081Z,25
2023-02-22T14:29:18.680Z,25
2023-02-22T14:35:57.769Z,25
2023-02-22T14:36:38.473Z,25
2023-02-22T14:37:19.044Z,25
2023-02-22T14:40:42.527Z,25
2023-02-22T14:41:23.035Z,25
2023-02-22T14:45:17.307Z,20
2023-02-22T14:45:57.862Z,20
2023-02-22T14:46:38.367Z,20
2023-02-22T14:50:02.158Z,20
2023-02-22T14:50:42.747Z,20
2023-02-22T14:51:25.871Z,20
2023-02-22T14:52:03.990Z,20
2023-02-22T14:52:44.557Z,20
2023-02-22T14:53:25.034Z,20
2023-02-22T14:54:05.535Z,20
2023-02-22T14:54:46.100Z,20
2023-02-22T14:55:26.674Z,20
2023-02-22T15:04:48.800Z,20
2023-02-22T15:05:29.374Z,15
2023-02-22T15:06:09.821Z,15
2023-02-22T15:09:34.890Z,15
2023-02-22T15:15:30.729Z,15
2023-02-22T15:21:15.776Z,15
2023-02-22T15:21:56.852Z,15
2023-02-22T15:22:37.850Z,15
2023-02-22T15:24:00.233Z,15
2023-02-22T15:24:41.274Z,15
2023-02-22T15:25:22.356Z,10
2023-02-22T15:26:03.529Z,10
2023-02-22T15:30:25.700Z,10
2023-02-22T15:31:07.104Z,10
2023-02-22T15:31:48.477Z,10
2023-02-22T15:36:05.167Z,10
2023-02-22T15:36:46.020Z,10
2023-02-22T15:37:26.966Z,10
2023-02-22T15:39:30.338Z,10
2023-02-22T15:40:12.302Z,10
2023-02-22T15:40:53.173Z,10
2023-02-22T15:41:34.222Z,10
2023-02-22T15:44:59.614Z,10
2023-02-22T15:45:40.728Z,10
2023-02-22T15:46:22.769Z,10
2023-02-22T15:47:03.828Z,10
2023-02-22T15:50:29.963Z,10
2023-02-22T15:51:11.033Z,5
2023-02-22T15:54:39.497Z,5
2023-02-22T15:55:20.647Z,5
2023-02-22T15:56:02.674Z,5
2023-02-22T15:56:43.720Z,5
2023-02-22T16:00:10.125Z,5
2023-02-22T16:00:51.149Z,5
2023-02-22T16:01:32.283Z,5
2023-02-22T16:02:13.314Z,5
2023-02-22T16:06:09.951Z,5
2023-02-22T16:06:50.683Z,5
2023-02-22T16:07:31.367Z,5
2023-02-22T16:10:54.654Z,5
2023-02-22T16:11:35.346Z,5
2023-02-22T16:12:16.167Z,5
2023-02-22T16:12:57.221Z,5
2023-02-22T16:13:37.742Z,5
2023-02-22T16:14:18.493Z,0
2023-02-22T16:14:59.000Z,0
2023-02-22T16:21:06.260Z,0
2023-02-22T16:21:46.803Z,0
2023-02-22T16:22:27.312Z,0
2023-02-22T16:23:07.791Z,0
2023-02-22T16:23:48.332Z,0
2023-02-22T16:24:28.931Z,0
2023-02-22T16:25:09.544Z,0
2023-02-22T16:31:14.765Z,0
2023-02-22T16:31:55.180Z,0
2023-02-22T16:32:36.119Z,0
2023-02-22T16:33:16.690Z,0
2023-02-22T16:33:57.169Z,0
2023-02-22T16:34:37.862Z,0
2023-02-22T16:35:18.347Z,0
2023-02-22T16:35:58.986Z,0
2023-02-22T16:40:51.325Z,0
2023-02-22T16:41:32.365Z,0
2023-02-22T16:42:13.394Z,0
2023-02-22T16:42:54.395Z,0
2023-02-22T16:43:35.427Z,0
2023-02-22T16:44:16.559Z,0
2023-02-22T16:44:57.645Z,0
2023-02-22T16:45:40.709Z,0
2023-02-22T16:49:44.934Z,0
2023-02-22T16:50:25.954Z,0
2023-02-22T16:51:07.062Z,0
2023-02-22T16:51:48.108Z,0
2023-02-22T16:52:29.184Z,0
2023-02-22T16:55:55.524Z,0
2023-02-22T16:56:36.567Z,0
2023-02-22T16:57:17.820Z,0
2023-02-22T16:57:58.739Z,0
2023-02-22T17:02:04.908Z,0
2023-02-22T17:02:46.453Z,0
2023-02-22T17:03:27.520Z,0
2023-02-22T17:04:08.648Z,0
2023-02-22T17:09:25.713Z,0
2023-02-22T17:10:06.104Z,0
2023-02-22T17:10:46.793Z,0
2023-02-22T17:14:10.022Z,0
2023-02-22T17:14:50.529Z,0
2023-02-22T17:15:31.207Z,0
2023-02-22T17:16:11.911Z,0
2023-02-22T17:16:52.301Z,0
2023-02-22T17:17:32.786Z,0
2023-02-22T17:18:13.291Z,0
2023-02-22T17:18:53.822Z,0
2023-02-22T17:25:39.968Z,0
2023-02-22T17:26:20.487Z,0
2023-02-22T17:27:01.295Z,0
2023-02-22T17:27:41.697Z,0
2023-02-22T17:28:23.988Z,0
2023-02-22T17:31:02.862Z,0
2023-02-22T17:31:43.483Z,0
2023-02-22T17:32:24.686Z,0
2023-02-22T17:33:45.651Z,0
2023-02-22T17:34:26.121Z,0
2023-02-22T17:40:31.608Z,0
2023-02-22T17:41:12.042Z,0
2023-02-22T17:41:54.780Z,0
2023-02-22T17:42:33.609Z,0
2023-02-22T17:43:14.098Z,0
2023-02-22T17:43:54.739Z,0
2023-02-22T17:44:35.051Z,0
2023-02-22T17:45:15.552Z,0
2023-02-22T17:45:56.079Z,0
2023-02-22T17:53:22.497Z,0
2023-02-22T18:34:16.987Z,0
2023-02-22T18:34:57.279Z,0
2023-02-22T18:35:37.810Z,0
2023-02-22T18:38:31.390Z,0
2023-02-22T18:39:11.878Z,0
2023-02-22T18:39:52.626Z,0
2023-02-22T18:41:54.645Z,0
2023-02-22T18:42:34.995Z,0
2023-02-22T18:43:15.514Z,0
2023-02-22T18:43:55.981Z,0
2023-02-22T18:44:36.467Z,0
2023-02-22T18:45:17.155Z,0
2023-02-22T18:48:51.171Z,0
2023-02-22T18:50:12.335Z,0
2023-02-22T18:50:53.130Z,0
2023-02-22T18:51:33.778Z,0
2023-02-22T18:52:14.373Z,0
2023-02-22T18:52:54.876Z,0
2023-02-22T18:53:35.397Z,0
2023-02-22T18:54:15.964Z,0
2023-02-22T18:54:56.409Z,0
2023-02-22T18:55:36.953Z,0
2023-02-22T18:56:18.011Z,0
2023-02-22T19:03:03.441Z,0
2023-02-22T19:03:44.028Z,0
2023-02-22T19:04:25.110Z,0
2023-02-22T19:05:05.629Z,0
2023-02-22T19:05:46.109Z,0
2023-02-22T19:06:26.744Z,0
2023-02-22T19:07:07.423Z,0
2023-02-22T19:07:47.980Z,0
2023-02-22T19:13:13.288Z,0
2023-02-22T19:13:54.039Z,0
2023-02-22T19:14:34.943Z,0
2023-02-22T19:15:15.659Z,0
2023-02-22T19:18:57.834Z,0
2023-02-22T19:19:38.678Z,0
2023-02-22T19:20:21.153Z,0
2023-02-22T19:22:25.428Z,0
2023-02-22T19:23:06.771Z,0
2023-02-22T19:23:48.581Z,0
2023-02-22T19:24:30.266Z,0
2023-02-22T19:28:49.543Z,0
2023-02-22T19:29:30.061Z,0
2023-02-22T19:30:10.551Z,0
2023-02-22T19:34:54.234Z,0
2023-02-22T19:35:34.772Z,0
2023-02-22T19:36:15.551Z,0
2023-02-22T19:36:55.760Z,0
2023-02-22T19:37:36.312Z,0
2023-02-22T19:38:16.820Z,0
2023-02-22T19:38:57.289Z,0
2023-02-22T19:39:37.764Z,0
2023-02-22T19:40:18.287Z,0
2023-02-22T19:40:58.827Z,0
2023-02-22T19:48:24.477Z,0
2023-02-22T19:49:04.972Z,0
2023-02-22T19:49:45.478Z,0
2023-02-22T19:50:26.099Z,0
2023-02-22T19:51:06.674Z,0
2023-02-22T19:51:47.187Z,0
2023-02-22T19:52:27.693Z,0
2023-02-22T19:53:08.167Z,0
2023-02-22T19:53:48.677Z,0
2023-02-22T19:54:29.205Z,0
2023-02-22T20:01:14.283Z,0
2023-02-22T20:01:54.932Z,0
2023-02-22T20:02:35.258Z,0
2023-02-22T20:03:15.847Z,0
2023-02-22T20:03:56.415Z,0
2023-02-22T20:04:36.731Z,0
2023-02-22T20:05:17.195Z,0
2023-02-22T20:05:57.723Z,0
2023-02-22T20:06:38.231Z,0
2023-02-22T20:07:18.684Z,0
2023-02-22T20:07:59.202Z,0
2023-02-22T20:14:44.266Z,0
2023-02-22T20:15:24.834Z,0
2023-02-22T20:16:05.342Z,0
2023-02-22T20:16:45.864Z,0
2023-02-22T20:17:26.295Z,0
2023-02-22T20:18:06.782Z,0
2023-02-22T20:18:47.277Z,0
2023-02-22T20:19:27.738Z,0
2023-02-22T20:20:08.248Z,0
2023-02-22T20:20:49.620Z,0
2023-02-22T20:21:29.266Z,0
2023-02-22T20:28:14.218Z,0
2023-02-22T20:28:54.696Z,0
2023-02-22T20:29:35.294Z,0
2023-02-22T20:30:15.726Z,0
2023-02-22T20:30:56.217Z,0
2023-02-22T20:31:36.819Z,0
2023-02-22T20:32:17.388Z,0
2023-02-22T20:32:57.940Z,0
2023-02-22T20:33:38.244Z,0
2023-02-22T20:34:18.659Z,0
2023-02-22T20:34:59.158Z,0
2023-02-22T20:42:24.668Z,0
2023-02-22T20:43:05.204Z,0
2023-02-22T20:43:45.656Z,0
2023-02-22T20:44:26.310Z,0
2023-02-22T20:45:06.720Z,0
2023-02-22T20:45:47.290Z,0
2023-02-22T20:46:27.782Z,0
2023-02-22T20:47:08.192Z,0
2023-02-22T20:47:48.727Z,0
2023-02-22T20:48:29.244Z,0
2023-02-22T20:55:14.224Z,0
2023-02-22T20:55:54.813Z,0
2023-02-22T20:56:35.259Z,0
2023-02-22T20:57:15.756Z,0
2023-02-22T20:57:56.257Z,0
2023-02-22T20:58:36.732Z,0
2023-02-22T20:59:17.236Z,0
2023-02-22T20:59:57.725Z,0
2023-02-22T21:00:38.241Z,0
2023-02-22T21:01:19.035Z,0
2023-02-22T21:01:59.247Z,0
2023-02-22T21:04:32.515Z,0
2023-02-22T21:05:12.894Z,0
2023-02-22T21:05:53.378Z,0
2023-02-22T21:11:17.598Z,0
2023-02-22T21:11:57.875Z,0
2023-02-22T21:12:38.342Z,0
2023-02-22T21:13:18.853Z,0
2023-02-22T21:16:58.237Z,0
2023-02-22T21:17:38.487Z,0
2023-02-22T21:18:19.006Z,0
2023-02-22T21:23:43.071Z,0
2023-02-22T21:24:23.452Z,0
2023-02-22T21:25:03.953Z,0
2023-02-22T21:25:44.477Z,0
2023-02-22T21:26:24.965Z,0
2023-02-22T21:27:06.295Z,0
2023-02-22T21:27:46.793Z,0
2023-02-22T21:28:32.370Z,0
2023-02-22T21:35:52.773Z,0
2023-02-22T21:36:33.260Z,0
2023-02-22T21:37:13.735Z,0
2023-02-22T21:37:54.214Z,0
2023-02-22T21:38:34.770Z,0
2023-02-22T21:39:15.346Z,0
2023-02-22T21:39:55.780Z,0
2023-02-22T21:40:36.267Z,0
2023-02-22T21:41:17.155Z,0
2023-02-22T21:41:57.253Z,0
2023-02-22T21:49:22.772Z,0
2023-02-22T21:50:03.294Z,0
2023-02-22T21:50:43.841Z,0
2023-02-22T21:51:24.270Z,0
2023-02-22T21:52:04.785Z,0
2023-02-22T21:52:45.330Z,0
2023-02-22T21:53:25.770Z,0
2023-02-22T21:54:06.262Z,0
2023-02-22T21:54:46.776Z,0
2023-02-22T21:55:27.226Z,0
2023-02-22T22:02:52.743Z,0
2023-02-22T22:03:33.198Z,0
2023-02-22T22:04:13.655Z,0
2023-02-22T22:04:54.113Z,0
2023-02-22T22:05:34.598Z,0
2023-02-22T22:06:15.082Z,0
2023-02-22T22:06:55.566Z,0
2023-02-22T22:07:36.040Z,0
2023-02-22T22:08:16.519Z,0
2023-02-22T22:08:57.023Z,0
2023-02-22T22:09:37.540Z,0
2023-02-22T22:17:03.046Z,0
2023-02-22T22:17:43.533Z,0
2023-02-22T22:18:24.013Z,0
2023-02-22T22:19:04.513Z,0
2023-02-22T22:19:45.016Z,0
2023-02-22T22:20:25.516Z,0
2023-02-22T22:21:06.018Z,0
2023-02-22T22:21:46.517Z,0
2023-02-22T22:22:27.011Z,0
2023-02-22T22:23:07.483Z,0
2023-02-22T22:30:32.923Z,0
2023-02-22T22:31:13.530Z,0
2023-02-22T22:31:53.938Z,0
2023-02-22T22:32:34.410Z,0
2023-02-22T22:33:14.870Z,0
2023-02-22T22:33:55.364Z,0
2023-02-22T22:35:16.364Z,0
2023-02-22T22:35:56.855Z,0